Time;durP1;ratioP1;P1;durP2;ratioP2;P2;SDS_P1;SDS_P2;PMS_P1;PMS_P2;Temp;Humidity;BMP_temperature;BMP_pressure;BME280_temperature;BME280_humidity;BME280_pressure;Samples;Min_cycle;Max_cycle;Signal;HPM_P1;HPM_P2
2021/09/25 00:00:31;;;;;;;8.80;3.53;;;;;;;17.23;78.48;101625.53;5053918;28;20025;-62
2021/09/25 00:03:00;;;;;;;11.68;3.45;;;;;;;17.26;78.76;101623.53;5052569;28;20036;-77
2021/09/25 00:05:27;;;;;;;17.42;3.70;;;;;;;17.25;79.04;101631.66;5053705;28;20021;-72
2021/09/25 00:07:52;;;;;;;11.45;4.30;;;;;;;17.23;79.26;101629.06;5051791;28;20408;-72
2021/09/25 00:10:18;;;;;;;12.93;3.78;;;;;;;17.19;79.09;101630.22;5053478;28;20482;-75
2021/09/25 00:12:44;;;;;;;9.65;4.10;;;;;;;17.18;79.44;101615.09;5053961;28;20029;-60
2021/09/25 00:15:10;;;;;;;9.40;3.28;;;;;;;17.16;79.44;101630.38;5053855;28;20025;-61
2021/09/25 00:17:35;;;;;;;12.75;3.45;;;;;;;17.20;79.60;101611.38;5053421;28;20053;-61
2021/09/25 00:20:01;;;;;;;10.05;3.70;;;;;;;17.18;79.82;101612.44;5052933;28;20116;-60
2021/09/25 00:22:26;;;;;;;10.52;3.70;;;;;;;17.17;79.72;101613.38;5053373;28;20053;-62
2021/09/25 00:24:51;;;;;;;13.45;3.80;;;;;;;17.15;79.96;101612.63;5052879;28;20028;-61
2021/09/25 00:27:17;;;;;;;11.10;3.60;;;;;;;17.15;79.92;101613.47;5053210;28;20013;-76
2021/09/25 00:29:42;;;;;;;14.93;3.55;;;;;;;17.14;80.15;101621.59;5052699;28;20079;-62
2021/09/25 00:32:07;;;;;;;9.73;3.70;;;;;;;17.10;80.53;101618.25;5053066;28;20414;-62
2021/09/25 00:34:32;;;;;;;10.48;3.58;;;;;;;17.10;80.83;101618.25;5053170;28;20029;-70
2021/09/25 00:36:58;;;;;;;12.65;3.45;;;;;;;17.06;80.66;101611.38;5053064;28;20219;-62
2021/09/25 00:39:23;;;;;;;12.48;3.85;;;;;;;17.03;80.69;101623.13;5052239;28;20086;-72
2021/09/25 00:41:49;;;;;;;10.80;3.90;;;;;;;16.99;81.27;101621.53;5052841;28;20385;-63
2021/09/25 00:44:14;;;;;;;11.07;3.90;;;;;;;16.96;81.35;101618.22;5052419;28;20025;-61
2021/09/25 00:46:40;;;;;;;14.73;3.90;;;;;;;16.98;81.53;101618.97;5053065;28;20107;-62
2021/09/25 00:49:05;;;;;;;10.50;3.88;;;;;;;16.99;81.67;101623.38;5052621;28;20436;-65
2021/09/25 00:51:31;;;;;;;13.43;4.30;;;;;;;16.94;81.24;101623.63;5052376;28;20044;-61
2021/09/25 00:53:57;;;;;;;11.90;3.63;;;;;;;16.95;81.35;101617.34;5052551;28;20043;-62
2021/09/25 00:56:24;;;;;;;11.27;4.75;;;;;;;16.95;81.10;101632.53;5052132;28;20473;-71
2021/09/25 00:58:50;;;;;;;13.45;4.10;;;;;;;16.96;81.19;101628.91;5052995;28;20075;-62
2021/09/25 01:01:16;;;;;;;14.48;4.30;;;;;;;16.96;81.17;101624.41;5052753;28;20373;-61
2021/09/25 01:03:41;;;;;;;10.10;4.00;;;;;;;16.97;80.34;101627.94;5052579;28;20032;-62
2021/09/25 01:06:06;;;;;;;10.55;4.20;;;;;;;17.00;80.41;101625.09;5052604;28;20067;-62
2021/09/25 01:08:32;;;;;;;16.48;4.80;;;;;;;16.94;80.65;101623.63;5051885;28;20029;-62
2021/09/25 01:10:57;;;;;;;7.57;3.72;;;;;;;16.94;80.60;101623.63;5052522;28;20024;-61
2021/09/25 01:13:23;;;;;;;19.17;4.97;;;;;;;16.91;80.54;101621.16;5052018;28;20108;-69
2021/09/25 01:15:49;;;;;;;11.80;4.72;;;;;;;16.90;80.44;101619.41;5052623;28;20039;-61
2021/09/25 01:18:15;;;;;;;11.85;5.00;;;;;;;16.88;80.35;101626.66;5051012;28;20140;-62
2021/09/25 01:20:41;;;;;;;14.13;4.78;;;;;;;16.85;80.57;101624.16;5051181;28;20048;-63
2021/09/25 01:23:06;;;;;;;17.73;5.15;;;;;;;16.82;80.21;101627.03;5052354;28;20059;-74
2021/09/25 01:25:33;;;;;;;13.65;5.10;;;;;;;16.82;80.17;101625.19;5051796;28;20044;-62
2021/09/25 01:27:59;;;;;;;13.18;4.85;;;;;;;16.81;80.42;101623.47;5052156;28;20032;-67
2021/09/25 01:30:25;;;;;;;14.98;5.38;;;;;;;16.78;80.53;101623.66;5051931;28;20045;-62
2021/09/25 01:32:52;;;;;;;12.23;5.82;;;;;;;16.78;80.28;101622.81;5052366;28;20073;-61
2021/09/25 01:35:20;;;;;;;12.23;5.30;;;;;;;16.78;80.16;101622.81;5051614;28;20373;-61
2021/09/25 01:37:47;;;;;;;13.40;5.40;;;;;;;16.76;80.32;101622.03;5052033;28;20495;-61
2021/09/25 01:40:14;;;;;;;11.48;5.60;;;;;;;16.70;80.57;101623.22;5051446;28;20424;-62
2021/09/25 01:42:39;;;;;;;14.35;5.57;;;;;;;16.73;80.79;101620.41;5052105;28;20033;-78
2021/09/25 01:45:06;;;;;;;15.25;6.32;;;;;;;16.71;80.76;101625.84;5051656;28;20486;-75
2021/09/25 01:47:31;;;;;;;15.02;5.93;;;;;;;16.70;80.79;101620.56;5051619;28;20079;-61
2021/09/25 01:50:03;;;;;;;13.73;6.07;;;;;;;16.71;80.59;101611.59;5052016;28;20381;-62
2021/09/25 01:52:29;;;;;;;12.20;5.88;;;;;;;16.67;80.88;101621.59;5049714;28;20090;-73
2021/09/25 01:54:54;;;;;;;11.88;6.15;;;;;;;16.65;80.78;101609.28;5051642;28;20021;-62
2021/09/25 01:57:19;;;;;;;11.77;5.82;;;;;;;16.64;80.49;101610.25;5051882;28;20484;-61
2021/09/25 01:59:45;;;;;;;13.50;6.40;;;;;;;16.62;81.21;101615.66;5051215;28;20461;-61
2021/09/25 02:02:12;;;;;;;11.75;5.40;;;;;;;16.61;81.39;101618.44;5050497;28;20052;-60
2021/09/25 02:04:38;;;;;;;11.88;6.03;;;;;;;16.62;81.29;101620.16;5051530;28;20430;-68
2021/09/25 02:07:05;;;;;;;14.85;6.13;;;;;;;16.62;81.56;101615.66;5050913;28;20112;-61
2021/09/25 02:09:30;;;;;;;18.17;6.35;;;;;;;16.61;81.22;101613.06;5051927;28;20078;-61
2021/09/25 02:11:56;;;;;;;11.93;5.82;;;;;;;16.61;81.45;101615.75;5050752;28;20040;-61
2021/09/25 02:14:21;;;;;;;14.65;6.53;;;;;;;16.62;81.29;101609.47;5050473;28;20031;-66
2021/09/25 02:16:46;;;;;;;17.08;6.15;;;;;;;16.61;81.92;101603.25;5051228;28;20025;-61
2021/09/25 02:19:12;;;;;;;13.80;6.25;;;;;;;16.60;82.01;101611.34;5051450;28;20033;-65
2021/09/25 02:21:37;;;;;;;11.85;5.93;;;;;;;16.60;81.91;101614.91;5051159;28;20033;-68
2021/09/25 02:24:03;;;;;;;16.00;6.43;;;;;;;16.59;81.61;101610.50;5051040;28;20028;-66
2021/09/25 02:26:28;;;;;;;16.00;6.10;;;;;;;16.55;81.85;101615.16;5050691;28;20378;-64
2021/09/25 02:28:54;;;;;;;15.57;6.72;;;;;;;16.52;82.18;101612.69;5050496;28;20052;-73
2021/09/25 02:31:20;;;;;;;13.38;6.13;;;;;;;16.53;82.18;101609.06;5051527;28;20029;-75
2021/09/25 02:33:46;;;;;;;15.98;6.65;;;;;;;16.52;82.19;101610.00;5050758;28;20017;-77
2021/09/25 02:36:12;;;;;;;19.60;6.47;;;;;;;16.52;82.24;101611.78;5051844;28;20063;-61
2021/09/25 02:38:37;;;;;;;17.05;6.57;;;;;;;16.51;82.49;101605.59;5050939;28;20040;-78
2021/09/25 02:41:02;;;;;;;18.73;6.97;;;;;;;16.52;82.65;101610.00;5051436;28;20036;-62
2021/09/25 02:43:28;;;;;;;14.68;6.53;;;;;;;16.51;82.40;101610.94;5050415;28;20121;-61
2021/09/25 02:45:53;;;;;;;18.60;7.05;;;;;;;16.47;82.39;101609.41;5051041;28;20025;-74
2021/09/25 02:48:18;;;;;;;12.27;6.32;;;;;;;16.50;82.39;101600.34;5050456;28;20029;-65
2021/09/25 02:50:44;;;;;;;12.55;6.32;;;;;;;16.48;82.70;101599.56;5050841;28;20020;-62
2021/09/25 02:53:09;;;;;;;17.52;6.90;;;;;;;16.44;83.02;101604.22;5050937;28;20095;-64
2021/09/25 02:55:34;;;;;;;18.42;6.82;;;;;;;16.46;82.78;101594.31;5050329;28;20033;-76
2021/09/25 02:57:59;;;;;;;18.95;6.88;;;;;;;16.46;82.55;101602.34;5049608;28;20471;-62
2021/09/25 03:00:25;;;;;;;15.10;7.00;;;;;;;16.47;82.58;101609.41;5050261;28;20037;-61
2021/09/25 03:02:50;;;;;;;14.80;6.65;;;;;;;16.46;82.88;101609.47;5051338;28;20041;-73
2021/09/25 03:05:16;;;;;;;14.20;6.55;;;;;;;16.37;83.65;101606.38;5050329;28;20025;-79
2021/09/25 03:07:41;;;;;;;14.57;6.50;;;;;;;16.41;83.30;101614.22;5051073;28;20017;-79
2021/09/25 03:10:07;;;;;;;16.05;6.63;;;;;;;16.42;83.03;101611.47;5050708;28;20021;-68
2021/09/25 03:12:34;;;;;;;16.48;6.50;;;;;;;16.43;83.48;101609.66;5050559;28;20483;-61
2021/09/25 03:15:00;;;;;;;16.98;6.63;;;;;;;16.40;83.13;101607.19;5049328;28;20045;-62
2021/09/25 03:17:26;;;;;;;15.95;7.15;;;;;;;16.38;83.48;101609.91;5051063;28;20025;-65
2021/09/25 03:19:51;;;;;;;15.50;7.18;;;;;;;16.39;83.22;101611.63;5053225;28;20430;-72
2021/09/25 03:22:17;;;;;;;13.77;6.88;;;;;;;16.41;83.55;101604.41;5054176;28;20164;-61
2021/09/25 03:24:43;;;;;;;14.25;6.72;;;;;;;16.41;83.77;101604.41;5054241;28;20089;-65
2021/09/25 03:27:08;;;;;;;16.20;7.22;;;;;;;16.40;83.60;101601.84;5034612;28;20450;-63
2021/09/25 03:29:33;;;;;;;16.40;7.28;;;;;;;16.40;83.45;101601.84;5034087;28;20420;-76
2021/09/25 03:31:58;;;;;;;13.57;6.45;;;;;;;16.40;83.99;101607.19;5047163;28;20025;-61
2021/09/25 03:34:24;;;;;;;18.02;7.88;;;;;;;16.41;84.05;101612.44;5054493;28;20040;-77
2021/09/25 03:36:49;;;;;;;12.70;7.15;;;;;;;16.43;84.17;101612.34;5053599;28;20021;-63
2021/09/25 03:39:14;;;;;;;19.35;8.25;;;;;;;16.41;84.23;101607.06;5054557;28;20107;-61
2021/09/25 03:41:40;;;;;;;22.27;7.93;;;;;;;16.37;84.37;101597.53;5053822;28;20086;-60
2021/09/25 03:44:05;;;;;;;15.48;7.65;;;;;;;16.36;84.42;101601.97;5054098;28;20040;-62
2021/09/25 03:46:31;;;;;;;17.80;7.97;;;;;;;16.37;84.74;101606.38;5053696;28;20036;-61
2021/09/25 03:48:57;;;;;;;17.80;8.93;;;;;;;16.37;84.67;101602.88;5054531;28;20087;-71
2021/09/25 03:51:22;;;;;;;17.90;8.82;;;;;;;16.36;84.90;101599.31;5053553;28;20025;-62
2021/09/25 03:53:47;;;;;;;18.77;8.10;;;;;;;16.40;85.05;101601.84;5053832;28;20141;-61
2021/09/25 03:56:13;;;;;;;16.55;8.15;;;;;;;16.38;84.47;101594.75;5053543;28;20035;-65
2021/09/25 03:58:40;;;;;;;16.70;7.82;;;;;;;16.39;85.13;101606.28;5053415;28;20112;-61
2021/09/25 04:01:06;;;;;;;20.10;8.07;;;;;;;16.37;84.99;101600.19;5053668;28;20206;-61
2021/09/25 04:03:32;;;;;;;15.50;7.82;;;;;;;16.37;85.14;101605.53;5053026;28;20029;-61
2021/09/25 04:05:58;;;;;;;18.98;8.77;;;;;;;16.40;85.30;101617.88;5054101;28;20078;-66
2021/09/25 04:08:24;;;;;;;17.20;8.85;;;;;;;16.41;84.86;101609.75;5053488;28;20370;-61
2021/09/25 04:10:50;;;;;;;19.75;9.00;;;;;;;16.37;85.06;101624.25;5053210;28;20024;-70
2021/09/25 04:13:15;;;;;;;18.95;9.75;;;;;;;16.34;85.39;101624.41;5053177;28;20028;-61
2021/09/25 04:15:41;;;;;;;21.35;9.50;;;;;;;16.37;85.47;101614.41;5053492;28;20104;-61
2021/09/25 04:18:08;;;;;;;17.05;8.63;;;;;;;16.38;85.50;101615.25;5053505;28;20070;-61
2021/09/25 04:20:33;;;;;;;21.77;9.63;;;;;;;16.40;85.35;101609.84;5052720;28;20036;-61
2021/09/25 04:22:59;;;;;;;24.08;10.30;;;;;;;16.36;85.48;101611.81;5053033;28;20025;-72
2021/09/25 04:25:30;;;;;;;19.55;10.00;;;;;;;16.39;85.55;101611.63;5053072;28;20028;-71
2021/09/25 04:27:55;;;;;;;18.17;9.93;;;;;;;16.37;85.49;101613.56;5052860;28;20032;-62
2021/09/25 04:30:21;;;;;;;21.60;10.45;;;;;;;16.40;85.26;101599.16;5051572;28;20114;-64
2021/09/25 04:32:46;;;;;;;21.83;11.25;;;;;;;16.39;85.84;101608.97;5053695;28;20112;-61
2021/09/25 04:35:12;;;;;;;19.98;10.07;;;;;;;16.41;85.37;101609.75;5052987;28;20025;-60
2021/09/25 04:37:37;;;;;;;19.17;10.40;;;;;;;16.42;85.62;101611.47;5052974;28;20053;-63
2021/09/25 04:40:03;;;;;;;23.80;11.13;;;;;;;16.44;85.52;101611.38;5052904;28;20036;-61
2021/09/25 04:42:29;;;;;;;23.17;10.77;;;;;;;16.43;85.87;101607.00;5052677;28;20047;-65
2021/09/25 04:44:54;;;;;;;21.65;10.80;;;;;;;16.44;85.79;101611.38;5045063;28;20028;-61
2021/09/25 04:47:20;;;;;;;23.23;10.85;;;;;;;16.41;85.84;101609.75;5052442;28;20039;-67
2021/09/25 04:49:45;;;;;;;21.25;10.80;;;;;;;16.43;86.18;101607.00;5048401;28;20024;-61
2021/09/25 04:52:10;;;;;;;26.08;11.95;;;;;;;16.39;86.34;101606.28;5053351;28;20538;-67
2021/09/25 04:54:36;;;;;;;24.35;12.13;;;;;;;16.40;85.85;101607.19;5053127;28;20063;-67
2021/09/25 04:57:01;;;;;;;25.25;11.70;;;;;;;16.41;86.60;101600.84;5053048;28;20055;-67
2021/09/25 04:59:26;;;;;;;27.77;11.90;;;;;;;16.41;86.49;101608.88;5053668;28;20064;-61
2021/09/25 05:01:52;;;;;;;22.95;11.10;;;;;;;16.40;86.47;101607.19;5052718;28;20021;-60
2021/09/25 05:04:17;;;;;;;24.23;11.77;;;;;;;16.40;86.47;101608.03;5052670;28;20032;-61
2021/09/25 05:06:45;;;;;;;28.55;12.25;;;;;;;16.40;86.39;101605.34;5052316;28;20071;-61
2021/09/25 05:09:10;;;;;;;25.40;12.07;;;;;;;16.41;86.26;101600.84;5052912;28;20017;-59
2021/09/25 05:11:35;;;;;;;30.65;12.40;;;;;;;16.40;86.68;101600.00;5052448;28;20500;-61
2021/09/25 05:14:02;;;;;;;21.55;11.65;;;;;;;16.42;86.93;101607.94;5052818;28;20021;-61
2021/09/25 05:16:27;;;;;;;27.00;12.63;;;;;;;16.42;87.01;101606.13;5052674;28;20029;-61
2021/09/25 05:18:52;;;;;;;27.35;12.40;;;;;;;16.43;87.18;101607.00;5033385;28;20040;-61
2021/09/25 05:21:18;;;;;;;31.10;12.15;;;;;;;16.43;87.06;101601.63;5049039;28;20124;-61
2021/09/25 05:23:43;;;;;;;26.65;13.02;;;;;;;16.44;87.38;101600.69;5053130;28;20031;-61
2021/09/25 05:26:09;;;;;;;26.90;13.15;;;;;;;16.48;87.25;101607.59;5051774;28;20085;-60
2021/09/25 05:28:35;;;;;;;30.23;12.75;;;;;;;16.44;87.31;101606.03;5052742;28;20109;-61
2021/09/25 05:31:00;;;;;;;30.58;12.88;;;;;;;16.45;87.45;101611.28;5051681;28;20112;-61
2021/09/25 05:33:26;;;;;;;31.20;12.93;;;;;;;16.44;87.48;101609.56;5052193;28;20048;-61
2021/09/25 05:35:51;;;;;;;29.23;12.68;;;;;;;16.45;87.53;101613.13;5051820;28;20043;-61
2021/09/25 05:38:16;;;;;;;32.25;13.00;;;;;;;16.47;87.90;101609.41;5052211;28;20106;-60
2021/09/25 05:40:41;;;;;;;29.38;12.93;;;;;;;16.47;87.75;101614.75;5051323;28;20075;-61
2021/09/25 05:43:07;;;;;;;28.58;13.13;;;;;;;16.49;87.77;101602.13;5051716;28;20354;-65
2021/09/25 05:45:32;;;;;;;33.22;13.55;;;;;;;16.50;87.75;101609.22;5051778;28;20105;-61
2021/09/25 05:47:58;;;;;;;25.77;12.13;;;;;;;16.50;87.83;101619.06;5051807;28;20021;-78
2021/09/25 05:50:23;;;;;;;31.45;12.32;;;;;;;16.53;87.87;101611.72;5051308;28;20031;-62
2021/09/25 05:52:48;;;;;;;31.48;12.95;;;;;;;16.55;87.91;101617.84;5051438;28;20036;-61
2021/09/25 05:55:14;;;;;;;23.58;12.35;;;;;;;16.59;87.79;101617.69;5051959;28;20049;-61
2021/09/25 05:57:43;;;;;;;32.15;12.38;;;;;;;16.62;87.59;101622.84;5051906;28;20037;-62
2021/09/25 06:00:09;;;;;;;31.17;12.60;;;;;;;16.62;87.60;101607.63;5051639;28;20426;-61
2021/09/25 06:02:37;;;;;;;33.28;13.32;;;;;;;16.62;87.72;101622.84;5051795;28;20100;-61
2021/09/25 06:05:03;;;;;;;33.92;12.45;;;;;;;16.62;87.60;101614.81;5051108;28;20025;-61
2021/09/25 06:07:29;;;;;;;27.00;13.57;;;;;;;16.62;87.76;101610.31;5052154;28;20104;-61
2021/09/25 06:09:54;;;;;;;28.90;12.40;;;;;;;16.66;88.00;101619.03;5051897;28;20412;-60
2021/09/25 06:12:19;;;;;;;27.83;13.38;;;;;;;16.69;87.61;101610.84;5051564;28;20038;-63
2021/09/25 06:14:45;;;;;;;34.72;13.73;;;;;;;16.77;87.49;101629.09;5051218;28;20449;-59
2021/09/25 06:17:11;;;;;;;30.90;12.63;;;;;;;16.80;87.26;101621.78;5051663;28;20029;-62
2021/09/25 06:19:37;;;;;;;32.28;13.32;;;;;;;16.82;87.33;101619.00;5050804;28;20047;-66
2021/09/25 06:22:03;;;;;;;32.78;13.38;;;;;;;16.85;87.63;101625.03;5059101;28;20028;-64
2021/09/25 06:24:28;;;;;;;25.08;12.82;;;;;;;16.88;87.25;101618.66;5051700;28;20090;-61
2021/09/25 06:26:53;;;;;;;34.20;13.70;;;;;;;16.90;87.14;101618.53;5051473;28;20460;-64
2021/09/25 06:29:19;;;;;;;46.33;13.90;;;;;;;16.90;87.12;101622.06;5071133;28;20103;-62
2021/09/25 06:31:44;;;;;;;27.80;13.20;;;;;;;16.95;87.03;101619.16;5037816;28;20199;-62
2021/09/25 06:34:09;;;;;;;35.25;13.52;;;;;;;16.98;86.89;101629.69;5042534;28;20043;-78
2021/09/25 06:36:40;;;;;;;35.40;13.48;;;;;;;16.97;87.06;101625.28;5038375;28;20091;-72
2021/09/25 06:39:05;;;;;;;33.85;12.63;;;;;;;16.99;86.72;101623.38;5051220;28;20040;-75
2021/09/25 06:41:30;;;;;;;36.97;13.95;;;;;;;17.00;86.56;101623.28;5051081;28;20033;-64
2021/09/25 06:43:56;;;;;;;39.47;14.82;;;;;;;16.95;86.95;101625.38;5051190;28;20025;-79
2021/09/25 06:46:21;;;;;;;37.42;15.20;;;;;;;16.90;87.00;101631.91;5050950;28;20412;-78
2021/09/25 06:48:49;;;;;;;34.00;14.88;;;;;;;16.94;87.41;101638.84;5050892;28;20052;-77
2021/09/25 06:51:16;;;;;;;45.72;16.60;;;;;;;16.97;87.53;101639.53;5048970;28;20049;-72
2021/09/25 06:53:42;;;;;;;41.22;16.00;;;;;;;16.96;87.31;101640.47;5048582;28;20032;-73
2021/09/25 06:56:07;;;;;;;37.05;15.50;;;;;;;17.03;86.90;101640.97;5049098;28;20104;-80
2021/09/25 06:58:33;;;;;;;51.38;19.27;;;;;;;17.11;86.71;101636.03;5049258;28;20113;-63
2021/09/25 07:00:58;;;;;;;44.95;17.08;;;;;;;17.16;86.43;101635.75;5050279;28;20040;-72
2021/09/25 07:03:23;;;;;;;44.63;16.80;;;;;;;17.14;86.82;101635.84;5049250;28;20442;-71
2021/09/25 07:05:49;;;;;;;48.08;17.05;;;;;;;17.11;86.60;101641.38;5037843;28;20033;-71
2021/09/25 07:08:14;;;;;;;42.50;17.05;;;;;;;17.12;86.86;101632.41;5044096;28;20029;-80
2021/09/25 07:10:39;;;;;;;45.75;16.85;;;;;;;17.13;86.97;101636.78;5033592;28;20021;-77
2021/09/25 07:13:05;;;;;;;50.40;17.20;;;;;;;17.19;86.76;101644.44;5048766;28;20448;-66
2021/09/25 07:15:31;;;;;;;42.22;17.27;;;;;;;17.26;86.79;101636.91;5049168;28;20155;-73
2021/09/25 07:17:58;;;;;;;63.95;21.83;;;;;;;17.41;86.14;101637.81;5049362;28;20021;-69
2021/09/25 07:20:23;;;;;;;43.40;17.77;;;;;;;17.51;85.56;101630.06;5049628;28;20033;-71
2021/09/25 07:22:51;;;;;;;47.40;17.38;;;;;;;17.52;85.68;101634.47;5049357;28;20443;-76
2021/09/25 07:25:22;;;;;;;45.03;16.40;;;;;;;17.58;85.12;101643.94;5049555;28;20053;-66
2021/09/25 07:27:48;;;;;;;41.67;17.33;;;;;;;17.61;85.03;101647.28;5047738;28;20037;-79
2021/09/25 07:30:14;;;;;;;42.25;18.15;;;;;;;17.67;84.96;101654.94;5049315;28;20052;-65
2021/09/25 07:32:39;;;;;;;47.67;19.42;;;;;;;17.72;84.86;101651.13;5049043;28;20421;-73
2021/09/25 07:35:06;;;;;;;42.63;16.88;;;;;;;17.79;84.75;101655.16;5047860;28;20031;-70
2021/09/25 07:37:33;;;;;;;45.28;18.45;;;;;;;17.78;84.48;101662.31;5049082;28;20473;-70
2021/09/25 07:39:59;;;;;;;42.20;17.92;;;;;;;17.76;84.92;101664.25;5049551;28;20059;-67
2021/09/25 07:42:25;;;;;;;57.17;20.38;;;;;;;17.78;85.34;101667.66;5049599;28;20025;-74
2021/09/25 07:44:50;;;;;;;60.80;21.45;;;;;;;17.92;84.29;101664.13;5049964;28;20477;-75
2021/09/25 07:47:16;;;;;;;42.25;17.25;;;;;;;18.03;83.93;101660.81;5048727;28;20076;-62
2021/09/25 07:49:42;;;;;;;42.08;16.85;;;;;;;18.12;83.36;101662.91;5048049;28;20102;-75
2021/09/25 07:52:07;;;;;;;48.80;18.30;;;;;;;18.19;82.95;101668.72;5049662;28;20127;-73
2021/09/25 07:54:32;;;;;;;47.60;17.50;;;;;;;18.28;82.60;101680.69;5050164;28;20451;-70
2021/09/25 07:56:58;;;;;;;33.45;18.08;;;;;;;18.25;82.12;101673.69;5050517;28;20473;-70
2021/09/25 07:59:23;;;;;;;37.95;16.38;;;;;;;18.16;82.64;101675.16;5050175;28;20036;-68
2021/09/25 08:01:49;;;;;;;35.15;15.90;;;;;;;18.23;82.89;101689.00;5042276;28;20028;-67
2021/09/25 08:04:15;;;;;;;39.40;17.30;;;;;;;18.10;82.71;101691.63;5030551;28;20053;-76
2021/09/25 08:06:41;;;;;;;44.13;18.15;;;;;;;18.06;83.05;101698.13;5034361;28;20478;-75
2021/09/25 08:09:06;;;;;;;39.03;16.38;;;;;;;18.05;83.19;101699.09;5034343;28;20036;-80
2021/09/25 08:11:32;;;;;;;37.65;16.35;;;;;;;18.07;83.26;101710.59;5033974;28;20087;-62
2021/09/25 08:13:57;;;;;;;40.67;16.23;;;;;;;18.10;83.10;101702.34;5047073;28;20410;-78
2021/09/25 08:16:22;;;;;;;39.42;16.65;;;;;;;18.11;83.14;101706.75;5038543;28;20030;-78
2021/09/25 08:18:49;;;;;;;35.78;15.95;;;;;;;18.17;83.28;101702.81;5033185;28;20029;-77
2021/09/25 08:21:14;;;;;;;37.72;15.93;;;;;;;18.03;84.16;101706.38;5032389;28;20125;-67
2021/09/25 08:23:40;;;;;;;35.30;15.32;;;;;;;18.08;83.46;101704.28;5037590;28;20024;-62
2021/09/25 08:26:05;;;;;;;34.58;15.52;;;;;;;18.13;83.33;101712.00;5052050;28;20029;-67
2021/09/25 08:28:30;;;;;;;34.80;16.38;;;;;;;18.16;83.14;101712.69;5051647;28;20124;-65
2021/09/25 08:30:56;;;;;;;31.60;16.25;;;;;;;18.19;83.01;101716.97;5050930;28;20153;-75
2021/09/25 08:33:21;;;;;;;35.03;17.33;;;;;;;18.34;82.57;101723.19;5052167;28;20025;-71
2021/09/25 08:35:46;;;;;;;37.53;17.40;;;;;;;18.42;82.37;101726.25;5051242;28;20095;-75
2021/09/25 08:38:12;;;;;;;36.30;16.92;;;;;;;18.51;81.94;101724.78;5051100;28;20037;-64
2021/09/25 08:40:37;;;;;;;34.88;17.33;;;;;;;18.60;80.98;101726.03;5051511;28;20063;-67
2021/09/25 08:43:03;;;;;;;39.42;18.48;;;;;;;18.53;81.18;101727.38;5051548;28;20025;-61
2021/09/25 08:45:28;;;;;;;36.80;17.48;;;;;;;18.51;81.95;101727.47;5051363;28;20032;-77
2021/09/25 08:47:55;;;;;;;33.90;17.02;;;;;;;18.55;81.57;101731.66;5051180;28;20131;-68
2021/09/25 08:50:20;;;;;;;35.72;17.02;;;;;;;18.60;81.28;101734.91;5052457;28;20397;-77
2021/09/25 08:52:46;;;;;;;39.08;16.08;;;;;;;18.63;81.25;101736.53;5051940;28;20029;-67
2021/09/25 08:55:12;;;;;;;33.70;15.73;;;;;;;18.69;81.28;101740.66;5051742;28;20043;-71
2021/09/25 08:57:39;;;;;;;33.28;16.08;;;;;;;18.68;80.53;101742.47;5051005;28;20021;-77
2021/09/25 09:00:29;;;;;;;34.60;16.52;;;;;;;18.65;80.84;101735.47;5051541;28;20456;-65
2021/09/25 09:02:55;;;;;;;35.30;16.40;;;;;;;18.69;80.89;101737.97;5052622;28;20033;-70
2021/09/25 09:05:31;;;;;;;34.83;16.65;;;;;;;18.70;80.45;101728.97;5057952;28;20051;-64
2021/09/25 09:08:01;;;;;;;35.95;15.63;;;;;;;18.83;80.46;101743.31;5052244;28;20028;-74
2021/09/25 09:10:32;;;;;;;38.55;18.17;;;;;;;18.91;79.92;101740.16;5051533;28;20021;-68
2021/09/25 09:12:58;;;;;;;33.97;16.85;;;;;;;18.96;80.11;101736.22;5051716;28;20464;-80
2021/09/25 09:15:31;;;;;;;36.83;17.48;;;;;;;18.95;79.47;101744.34;5051784;28;20020;-73
2021/09/25 09:17:56;;;;;;;35.97;18.60;;;;;;;18.78;79.67;101753.47;5051604;28;20029;-79
2021/09/25 09:20:21;;;;;;;45.30;19.52;;;;;;;18.76;81.43;101745.53;5050847;28;20037;-75
2021/09/25 09:22:47;;;;;;;34.75;16.77;;;;;;;18.88;80.56;101748.38;5051692;28;20025;-66
2021/09/25 09:25:12;;;;;;;34.38;17.02;;;;;;;19.03;79.28;101747.41;5048851;28;20037;-74
2021/09/25 09:27:44;;;;;;;34.50;17.90;;;;;;;18.88;81.11;101753.75;5049749;28;20029;-62
2021/09/25 09:30:14;;;;;;;39.60;20.13;;;;;;;18.98;80.10;101766.47;5048740;28;20041;-62
2021/09/25 09:32:43;;;;;;;39.00;21.90;;;;;;;19.24;79.01;101753.13;5052130;28;20458;-76
2021/09/25 09:35:10;;;;;;;36.90;20.30;;;;;;;19.59;78.03;101757.97;5049930;28;20361;-68
2021/09/25 09:37:36;;;;;;;37.92;21.80;;;;;;;19.81;76.73;101748.41;5051348;28;20112;-78
2021/09/25 09:40:04;;;;;;;38.00;21.05;;;;;;;20.13;74.87;101742.63;5050933;28;20112;-66
2021/09/25 09:42:41;;;;;;;36.20;20.38;;;;;;;20.21;74.53;101753.69;5054483;28;20027;-63
2021/09/25 09:45:07;;;;;;;34.80;19.40;;;;;;;20.30;75.19;101749.50;5051935;28;20105;-65
2021/09/25 09:47:43;;;;;;;31.65;16.92;;;;;;;20.58;73.05;101750.19;5052730;28;20014;-59
2021/09/25 09:50:08;;;;;;;26.23;15.98;;;;;;;20.72;72.32;101744.69;5049272;28;20029;-70
2021/09/25 09:52:33;;;;;;;29.10;18.67;;;;;;;20.69;72.52;101746.69;5052494;28;20053;-65
2021/09/25 09:54:59;;;;;;;34.33;19.08;;;;;;;20.55;73.52;101750.38;5050706;28;20031;-73
2021/09/25 09:57:24;;;;;;;33.30;18.48;;;;;;;20.69;72.50;101754.78;5050423;28;20053;-65
2021/09/25 09:59:50;;;;;;;31.52;18.92;;;;;;;20.93;71.37;101758.41;5050409;28;20396;-64
2021/09/25 10:02:17;;;;;;;32.20;18.55;;;;;;;20.85;70.92;101744.63;5048399;28;20052;-68
2021/09/25 10:04:44;;;;;;;31.42;19.70;;;;;;;20.70;71.82;101756.50;5050361;28;20091;-63
2021/09/25 10:07:10;;;;;;;29.80;18.05;;;;;;;20.60;71.84;101754.47;5044612;28;20033;-71
2021/09/25 10:09:37;;;;;;;27.90;17.35;;;;;;;20.49;73.18;101753.53;5049856;28;20059;-65
2021/09/25 10:12:09;;;;;;;31.52;18.17;;;;;;;20.46;72.31;101750.09;5039433;28;20500;-59
2021/09/25 10:14:37;;;;;;;32.53;19.83;;;;;;;20.21;73.23;101761.75;5048738;28;20028;-67
2021/09/25 10:17:06;;;;;;;34.60;19.90;;;;;;;20.00;74.19;101755.22;5049987;28;20530;-72
2021/09/25 10:19:33;;;;;;;32.05;19.98;;;;;;;19.83;75.63;101757.25;5049119;28;20048;-64
2021/09/25 10:22:11;;;;;;;33.90;20.13;;;;;;;19.76;76.33;101753.25;5050068;28;20017;-74
2021/09/25 10:24:39;;;;;;;38.25;21.40;;;;;;;19.78;76.43;101748.63;5043095;28;20100;-61
2021/09/25 10:27:07;;;;;;;35.80;21.25;;;;;;;19.67;75.98;101749.38;5045746;28;20172;-69
2021/09/25 10:29:32;;;;;;;35.83;20.58;;;;;;;19.73;75.54;101745.38;5045406;28;20039;-68
2021/09/25 10:32:18;;;;;;;35.70;20.50;;;;;;;19.69;75.85;101739.34;5049248;28;20393;-59
2021/09/25 10:35:13;;;;;;;37.85;22.02;;;;;;;19.66;75.88;101742.28;5034059;28;20036;-62
2021/09/25 10:37:50;;;;;;;42.30;23.75;;;;;;;19.73;76.03;101743.56;5046177;28;20036;-68
2021/09/25 10:40:19;;;;;;;38.60;24.27;;;;;;;19.81;76.17;101745.72;5048762;28;20062;-67
2021/09/25 10:42:56;;;;;;;43.70;25.63;;;;;;;19.94;75.34;101743.06;5048351;28;20035;-62
2021/09/25 10:45:29;;;;;;;37.85;24.75;;;;;;;20.01;75.22;101738.13;5049012;28;20028;-67
2021/09/25 10:48:05;;;;;;;38.83;24.35;;;;;;;20.22;74.65;101744.66;5048690;28;20029;-66
2021/09/25 10:50:31;;;;;;;45.75;26.92;;;;;;;20.33;74.14;101740.34;5043802;28;20790;-65
2021/09/25 10:53:12;;;;;;;40.65;26.60;;;;;;;20.48;72.85;101741.06;5046675;28;20047;-77
2021/09/25 10:55:38;;;;;;;;;;;;;;;20.58;72.82;101744.81;5036303;28;20101;-62
2021/09/25 10:58:25;;;;;;;45.08;29.08;;;;;;;20.64;72.37;101738.97;5030328;28;19920;-61
2021/09/25 11:00:59;;;;;;;45.70;28.50;;;;;;;20.68;71.36;101735.09;5039015;28;20029;-61
2021/09/25 11:03:39;;;;;;;45.05;27.85;;;;;;;20.78;71.59;101736.16;5047058;28;20037;-65
2021/09/25 11:06:26;;;;;;;46.47;27.75;;;;;;;20.95;71.33;101736.72;5046118;28;20095;-71
2021/09/25 11:08:57;;;;;;;45.33;28.23;;;;;;;21.03;70.29;101739.69;5039895;28;20063;-66